Ana Sayfa
METAR-TAF:

METAR-TAF

Havaalanları :

Tegel Havalimanı

Berlin, Almanya

Enlem: 52-34N, Boylam: 013-19E, yükseklik: 37 m

Güncel hava durumu gözlemi

Rapor saat 08:20 UTC de 12 dakika önce yapıldı.
Rüzgar batıdan 6 kt, batı/güneybatı ve batı/kuzeybatı arasında değişken
Sıcaklık 22°C
Nem 53%
Basınç 1015 hPa
Görüş mesafesi 10 km veya daha fazla
1500 m altında bulut yok ve kümülonimbus yok

METAR: EDDT 200820Z 27006KT 240V300 CAVOK 22/12 Q1015 NOSIG

Saat: 10:32 (08:32 UTC)

Tahmin

Rapor saat 05:00 UTC de 3 saat ve 32 dakika önce yapıldı.
Ayın 20'si saat 06 UTC'den ayın 21'si saat 06 UTC'ye kadar geçerli Tahmin
Rüzgar batıdan 6 kt
Görüş mesafesi 10 km veya daha fazla
1500 m altında bulut yok ve kümülonimbus yok
Dönüşüyor
ayın 20'si saat 17 UTC'den ayın 20'si saat 19 UTC'ye kadar
Rüzgar kuzeydoğudan 4 kt

TAF: EDDT 200500Z 2006/2106 28006KT CAVOK BECMG 2017/2019 05004KT

4.000'den fazla havaalanı için hava durumu gözlemleri ve tahminleri (METAR ve TAF raporları).

Kullanılabilir istasyonlar harita üzerinde sarı ve kırmızı noktalarla gösterilir.

İstasyonun adını görmek için fareyi noktanın üzerinde gezdirin.

Sonrasında hava gözlem ve tahminlerini görmek için tıklayın.

Haritayı değiştirmek için: yaklaştırmak için siyah artı işaretli yeşil düğmeye ve uzaklaştırmak için de eksi işaretli düğmeye hızla tıklayın; bitişik haritalar için yeşil okları kullanın.


METAR-TAF: